< < Back
Terminal Aerodrome Forecast


Current Version              Previous Versions:   1  2  3  4  5  6  7  8  9  

Terminal Aerodrome Forecast

382
FTUS42 KJAX 062330
TAFGNV
TAF
KGNV 062330Z 0700/0724 VRB05KT P6SM VCSH SCT030 BKN090 OVC250
     FM070200 00000KT P6SM SCT150 SCT250
     FM071500 28005KT P6SM SCT035 SCT250
     FM071900 26006KT P6SM VCTS SCT050CB BKN250=



Latest METAR

473
SAUS70 KWBC 070000 RRA
MTRGNV
METAR KGNV 062353Z 21003KT 10SM CLR 24/21 A3012 RMK AO2 SLP199 60001
T02390206 10333 20233 50002


USA.gov is the U.S. government's official web portal to all federal, state and local government web resources and services.